createdAt,value
2018-10-07T00:00:36.909Z,101373.17
2018-10-07T00:03:05.863Z,101370.22
2018-10-07T00:05:34.859Z,101371.66
2018-10-07T00:08:03.799Z,101371.80
2018-10-07T00:10:32.818Z,101392.14
2018-10-07T00:13:01.690Z,101396.85
2018-10-07T00:15:30.636Z,101404.86
2018-10-07T00:17:59.546Z,101408.22
2018-10-07T00:20:30.474Z,101423.70
2018-10-07T00:22:59.512Z,101407.05
2018-10-07T00:25:28.452Z,101414.60
2018-10-07T00:27:57.419Z,101417.15
2018-10-07T00:30:26.431Z,101415.11
2018-10-07T00:32:55.434Z,101413.42
2018-10-07T00:35:24.416Z,101397.69
2018-10-07T00:37:53.736Z,101442.16
2018-10-07T00:40:22.973Z,101440.53
2018-10-07T00:42:51.927Z,101463.11
2018-10-07T00:45:21.075Z,101430.64
2018-10-07T00:47:50.039Z,101451.98
2018-10-07T00:50:18.965Z,101453.69
2018-10-07T00:52:47.891Z,101458.20
2018-10-07T00:55:16.908Z,101461.13
2018-10-07T00:57:46.915Z,101463.66
2018-10-07T01:00:16.961Z,101466.09
2018-10-07T01:02:45.952Z,101465.58
2018-10-07T01:05:14.955Z,101470.64
2018-10-07T01:07:43.898Z,101479.73
2018-10-07T01:10:13.906Z,101475.67
2018-10-07T01:12:42.932Z,101478.70
2018-10-07T01:15:11.934Z,101481.89
2018-10-07T01:17:40.883Z,101478.91
2018-10-07T01:20:10.832Z,101479.72
2018-10-07T01:22:39.872Z,101487.53
2018-10-07T01:25:09.820Z,101487.95
2018-10-07T01:27:38.812Z,101481.41
2018-10-07T01:30:08.731Z,101489.23
2018-10-07T01:32:37.744Z,101491.61
2018-10-07T01:35:06.748Z,101485.63
2018-10-07T01:37:35.700Z,101482.62
2018-10-07T01:40:04.707Z,101490.40
2018-10-07T01:42:34.616Z,101494.23
2018-10-07T01:45:03.581Z,101487.47
2018-10-07T01:47:32.512Z,101493.80
2018-10-07T01:50:01.412Z,101483.19
2018-10-07T01:52:30.368Z,101480.33
2018-10-07T01:54:59.296Z,101482.33
2018-10-07T01:57:28.249Z,101493.40
2018-10-07T01:59:57.174Z,101489.11
2018-10-07T02:02:26.147Z,101504.73
2018-10-07T02:04:55.162Z,101489.80
2018-10-07T02:07:24.064Z,101494.79
2018-10-07T02:09:53.074Z,101503.12
2018-10-07T02:12:21.999Z,101493.82
2018-10-07T02:14:50.937Z,101508.33
2018-10-07T02:17:19.904Z,101476.38
2018-10-07T02:19:48.820Z,101473.80
2018-10-07T02:22:17.830Z,101494.66
2018-10-07T02:24:46.800Z,101492.60
2018-10-07T02:27:15.794Z,101484.36
2018-10-07T02:29:44.757Z,101491.13
2018-10-07T02:32:13.662Z,101495.83
2018-10-07T02:34:42.687Z,101499.05
2018-10-07T02:37:11.676Z,101495.27
2018-10-07T02:39:40.668Z,101504.36
2018-10-07T02:42:09.648Z,101507.00
2018-10-07T02:44:38.693Z,101506.40
2018-10-07T02:47:07.945Z,101506.88
2018-10-07T02:49:36.929Z,101521.95
2018-10-07T02:52:05.967Z,101531.28
2018-10-07T02:54:35.064Z,101535.75
2018-10-07T02:57:04.079Z,101534.34
2018-10-07T02:59:33.038Z,101534.64
2018-10-07T03:02:01.974Z,101544.11
2018-10-07T03:04:30.950Z,101544.83
2018-10-07T03:06:59.871Z,101545.28
2018-10-07T03:09:29.020Z,101550.02
2018-10-07T03:11:57.974Z,101539.34
2018-10-07T03:14:26.935Z,101539.72
2018-10-07T03:16:55.838Z,101540.19
2018-10-07T03:19:24.776Z,101536.91
2018-10-07T03:21:53.743Z,101551.45
2018-10-07T03:24:22.769Z,101555.41
2018-10-07T03:26:51.767Z,101553.20
2018-10-07T03:29:20.821Z,101554.55
2018-10-07T03:31:49.727Z,101557.43
2018-10-07T03:34:18.707Z,101559.61
2018-10-07T03:36:48.627Z,101568.11
2018-10-07T03:39:17.491Z,101568.08
2018-10-07T03:41:46.373Z,101577.48
2018-10-07T03:44:15.349Z,101591.77
2018-10-07T03:46:44.309Z,101596.80
2018-10-07T03:49:13.334Z,101608.49
2018-10-07T03:51:42.275Z,101617.74
2018-10-07T03:54:11.293Z,101612.67
2018-10-07T03:56:40.248Z,101621.24
2018-10-07T03:59:09.143Z,101625.12
2018-10-07T04:01:38.050Z,101616.94
2018-10-07T04:04:07.979Z,101629.23
2018-10-07T04:06:36.991Z,101633.81
2018-10-07T04:09:08.527Z,101644.20
2018-10-07T04:11:37.498Z,101650.92
2018-10-07T04:14:06.884Z,101649.55
2018-10-07T04:16:35.979Z,101664.05
2018-10-07T04:19:04.940Z,101673.65
2018-10-07T04:21:34.056Z,101672.91
2018-10-07T04:24:03.731Z,101681.42
2018-10-07T04:26:33.159Z,101684.27
2018-10-07T04:29:02.504Z,101687.59
2018-10-07T04:31:31.500Z,101692.04
2018-10-07T04:34:00.508Z,101698.06
2018-10-07T04:36:29.500Z,101701.13
2018-10-07T04:38:58.629Z,101704.72
2018-10-07T04:41:28.620Z,101705.84
2018-10-07T04:43:58.475Z,101704.06
2018-10-07T04:46:27.486Z,101713.23
2018-10-07T04:48:56.370Z,101720.70
2018-10-07T04:51:25.272Z,101709.02
2018-10-07T04:53:54.208Z,101722.80
2018-10-07T04:56:23.160Z,101725.78
2018-10-07T04:58:52.049Z,101727.02
2018-10-07T05:01:22.193Z,101731.27
2018-10-07T05:03:51.330Z,101736.85
2018-10-07T05:06:22.305Z,101742.86
2018-10-07T05:08:51.268Z,101742.05
2018-10-07T05:11:26.204Z,101749.70
2018-10-07T05:13:56.195Z,101762.05
2018-10-07T05:16:34.655Z,101765.97
2018-10-07T05:19:03.629Z,101767.84
2018-10-07T05:21:32.613Z,101773.45
2018-10-07T05:24:01.593Z,101780.06
2018-10-07T05:26:30.622Z,101782.52
2018-10-07T05:28:59.565Z,101794.77
2018-10-07T05:31:29.591Z,101807.08
2018-10-07T05:33:58.541Z,101806.50
2018-10-07T05:36:27.451Z,101808.66
2018-10-07T05:40:26.979Z,101814.89
2018-10-07T05:42:56.011Z,101818.86
2018-10-07T05:45:25.424Z,101822.17
2018-10-07T05:47:55.092Z,101831.13
2018-10-07T05:50:24.724Z,101833.71
2018-10-07T05:52:54.347Z,101837.97
2018-10-07T05:55:23.412Z,101839.51
2018-10-07T05:57:56.958Z,101838.88
2018-10-07T06:00:27.276Z,101838.16
2018-10-07T06:03:04.154Z,101847.64
2018-10-07T06:05:33.128Z,101846.11
2018-10-07T06:08:02.120Z,101844.97
2018-10-07T06:10:31.117Z,101844.05
2018-10-07T06:13:00.102Z,101844.67
2018-10-07T06:15:33.126Z,101844.01
2018-10-07T06:18:02.108Z,101851.99
2018-10-07T06:20:31.565Z,101855.06
2018-10-07T06:23:00.516Z,101855.96
2018-10-07T06:25:29.638Z,101855.65
2018-10-07T06:27:58.718Z,101859.67
2018-10-07T06:30:28.796Z,101862.08
2018-10-07T06:32:57.876Z,101865.40
2018-10-07T06:35:27.030Z,101873.11
2018-10-07T06:37:56.497Z,101870.23
2018-10-07T06:40:25.533Z,101877.79
2018-10-07T06:42:54.454Z,101873.84
2018-10-07T06:45:23.431Z,101882.28
2018-10-07T06:47:52.333Z,101881.70
2018-10-07T06:50:22.249Z,101893.92
2018-10-07T06:52:51.252Z,101901.03
2018-10-07T06:55:20.279Z,101903.49
2018-10-07T06:57:49.228Z,101911.48
2018-10-07T07:00:18.266Z,101918.53
2018-10-07T07:02:47.272Z,101916.26
2018-10-07T07:05:16.222Z,101915.66
2018-10-07T07:07:45.223Z,101929.94
2018-10-07T07:10:14.218Z,101933.41
2018-10-07T07:12:43.205Z,101934.30
2018-10-07T07:15:12.194Z,101944.35
2018-10-07T07:17:42.214Z,101954.92
2018-10-07T07:20:11.248Z,101962.20
2018-10-07T07:22:40.204Z,101964.89
2018-10-07T07:25:09.190Z,101955.94
2018-10-07T07:27:38.188Z,101957.02
2018-10-07T07:30:07.200Z,101953.91
2018-10-07T07:32:36.210Z,101960.77
2018-10-07T07:35:06.293Z,101962.84
2018-10-07T07:37:35.295Z,101959.80
2018-10-07T07:40:04.390Z,101959.37
2018-10-07T07:42:33.419Z,101950.19
2018-10-07T07:45:02.362Z,101954.96
2018-10-07T07:47:34.464Z,101958.44
2018-10-07T07:50:03.623Z,101954.36
2018-10-07T07:52:33.500Z,101951.87
2018-10-07T07:55:02.412Z,101961.95
2018-10-07T07:57:31.318Z,101958.17
2018-10-07T08:00:00.311Z,101969.39
2018-10-07T08:02:29.338Z,101973.20
2018-10-07T08:04:58.416Z,101977.91
2018-10-07T08:07:27.408Z,101981.34
2018-10-07T08:09:57.450Z,101996.18
2018-10-07T08:12:26.428Z,101998.67
2018-10-07T08:14:55.413Z,102008.34
2018-10-07T08:17:25.332Z,102011.22
2018-10-07T08:19:54.193Z,102008.20
2018-10-07T08:22:23.635Z,102015.63
2018-10-07T08:24:52.760Z,102030.90
2018-10-07T08:27:21.725Z,102035.89
2018-10-07T08:29:50.871Z,102040.59
2018-10-07T08:32:19.968Z,102039.66
2018-10-07T08:34:48.998Z,102048.40
2018-10-07T08:37:17.949Z,102049.09
2018-10-07T08:39:46.866Z,102054.47
2018-10-07T08:42:19.197Z,102061.58
2018-10-07T08:44:48.100Z,102062.55
2018-10-07T08:47:16.994Z,102068.17
2018-10-07T08:49:46.147Z,102076.52
2018-10-07T08:52:15.242Z,102085.46
2018-10-07T08:54:44.465Z,102085.52
2018-10-07T08:57:13.406Z,102088.72
2018-10-07T08:59:42.428Z,102094.13
2018-10-07T09:02:11.483Z,102093.20
2018-10-07T09:04:40.435Z,102102.20
2018-10-07T09:07:09.405Z,102101.73
2018-10-07T09:09:38.390Z,102102.11
2018-10-07T09:12:07.477Z,102099.03
2018-10-07T09:14:36.565Z,102100.86
2018-10-07T09:17:05.411Z,102109.74
2018-10-07T09:19:34.335Z,102106.99
2018-10-07T09:22:03.227Z,102106.62
2018-10-07T09:24:32.259Z,102110.19
2018-10-07T09:27:02.375Z,102113.56
2018-10-07T09:29:31.281Z,102115.19
2018-10-07T09:32:00.357Z,102108.01
2018-10-07T09:34:29.340Z,102110.27
2018-10-07T09:36:58.335Z,102108.66
2018-10-07T09:39:27.357Z,102117.73
2018-10-07T09:41:56.318Z,102121.11
2018-10-07T09:44:26.224Z,102128.37
2018-10-07T09:46:55.456Z,102130.25
2018-10-07T09:49:24.479Z,102124.18
2018-10-07T09:51:53.437Z,102127.36
2018-10-07T09:54:22.386Z,102119.55
2018-10-07T09:56:51.336Z,102128.67
2018-10-07T09:59:20.282Z,102122.03
2018-10-07T10:01:50.246Z,102124.72
2018-10-07T10:04:19.216Z,102123.05
2018-10-07T10:06:48.058Z,102115.78
2018-10-07T10:09:16.959Z,102114.45
2018-10-07T10:11:45.883Z,102106.08
2018-10-07T10:14:14.913Z,102101.17
2018-10-07T10:16:49.931Z,102092.51
2018-10-07T10:19:22.768Z,102097.01
2018-10-07T10:21:56.628Z,102077.60
2018-10-07T10:24:31.436Z,102097.59
2018-10-07T10:27:06.680Z,102095.41
2018-10-07T10:29:44.080Z,102091.50
2018-10-07T10:32:21.471Z,102088.66
2018-10-07T10:35:02.150Z,102087.71
2018-10-07T10:37:45.361Z,102086.78
2018-10-07T10:40:21.451Z,102083.63
2018-10-07T10:42:57.647Z,102090.94
2018-10-07T10:46:04.665Z,102084.20
2018-10-07T10:48:42.153Z,102094.85
2018-10-07T10:51:23.739Z,102100.11
2018-10-07T10:54:03.615Z,102099.28
2018-10-07T10:56:41.553Z,102097.55
2018-10-07T10:59:46.682Z,102099.22
2018-10-07T11:02:28.772Z,102098.97
2018-10-07T11:05:20.793Z,102094.31
2018-10-07T11:08:01.356Z,102093.02
2018-10-07T11:10:35.896Z,102106.70
2018-10-07T11:15:16.643Z,102099.00
2018-10-07T11:18:10.688Z,102100.83
2018-10-07T11:20:55.861Z,102094.28
2018-10-07T11:24:02.496Z,102100.57
2018-10-07T11:26:45.479Z,102088.86
2018-10-07T11:29:25.069Z,102096.05
2018-10-07T11:32:10.565Z,102088.83
2018-10-07T11:34:49.573Z,102093.48
2018-10-07T11:37:30.523Z,102092.06
2018-10-07T11:40:13.648Z,102092.35
2018-10-07T11:42:49.661Z,102085.95
2018-10-07T11:45:27.309Z,102087.13
2018-10-07T11:48:07.589Z,102083.34
2018-10-07T11:50:43.952Z,102085.20
2018-10-07T11:53:37.020Z,102084.98
2018-10-07T11:56:05.958Z,102082.45
2018-10-07T11:58:34.821Z,102091.78
2018-10-07T12:01:04.772Z,102082.02
2018-10-07T12:03:33.776Z,102075.03
2018-10-07T12:06:02.801Z,102075.80
2018-10-07T12:08:31.713Z,102065.81
2018-10-07T12:11:00.611Z,102064.77
2018-10-07T12:13:29.594Z,102073.27
2018-10-07T12:15:58.463Z,102074.45
2018-10-07T12:18:27.393Z,102087.92
2018-10-07T12:20:56.332Z,102081.18
2018-10-07T12:23:25.304Z,102075.59
2018-10-07T12:25:54.279Z,102077.35
2018-10-07T12:28:23.315Z,102085.77
2018-10-07T12:30:52.228Z,102082.46
2018-10-07T12:33:21.253Z,102080.47
2018-10-07T12:35:50.153Z,102076.98
2018-10-07T12:38:19.115Z,102083.52
2018-10-07T12:40:48.009Z,102080.66
2018-10-07T12:43:16.956Z,102077.52
2018-10-07T12:45:45.863Z,102085.72
2018-10-07T12:48:14.844Z,102085.23
2018-10-07T12:50:45.070Z,102083.95
2018-10-07T12:53:14.986Z,102083.29
2018-10-07T12:55:44.074Z,102095.38
2018-10-07T12:58:13.109Z,102096.89
2018-10-07T13:00:42.061Z,102102.85
2018-10-07T13:03:11.059Z,102104.02
2018-10-07T13:05:40.198Z,102111.22
2018-10-07T13:08:09.176Z,102103.93
2018-10-07T13:10:40.194Z,102107.54
2018-10-07T13:13:09.066Z,102109.02
2018-10-07T13:15:38.011Z,102108.20
2018-10-07T13:18:06.958Z,102107.47
2018-10-07T13:20:36.871Z,102109.82
2018-10-07T13:23:06.149Z,102115.92
2018-10-07T13:25:35.077Z,102120.66
2018-10-07T13:28:04.143Z,102124.39
2018-10-07T13:30:33.187Z,102118.59
2018-10-07T13:33:02.166Z,102123.84
2018-10-07T13:35:31.279Z,102134.08
2018-10-07T13:38:01.004Z,102118.83
2018-10-07T13:40:29.977Z,102117.89
2018-10-07T13:42:58.958Z,102122.32
2018-10-07T13:45:27.846Z,102119.45
2018-10-07T13:47:56.820Z,102118.44
2018-10-07T13:50:25.704Z,102121.02
2018-10-07T13:52:54.723Z,102123.86
2018-10-07T13:55:23.659Z,102128.31
2018-10-07T13:57:52.669Z,102123.55
2018-10-07T14:00:21.563Z,102130.53
2018-10-07T14:02:50.591Z,102130.05
2018-10-07T14:05:19.657Z,102118.47
2018-10-07T14:07:48.803Z,102121.83
2018-10-07T14:10:17.959Z,102119.02
2018-10-07T14:12:46.869Z,102119.43
2018-10-07T14:15:15.915Z,102118.27
2018-10-07T14:17:45.161Z,102113.07
2018-10-07T14:20:14.148Z,102118.47
2018-10-07T14:22:43.121Z,102115.81
2018-10-07T14:25:12.143Z,102125.52
2018-10-07T14:27:41.392Z,102117.48
2018-10-07T14:30:10.370Z,102116.86
2018-10-07T14:32:39.288Z,102118.53
2018-10-07T14:35:08.266Z,102113.62
2018-10-07T14:37:37.207Z,102107.79
2018-10-07T14:40:07.226Z,102112.77
2018-10-07T14:42:36.195Z,102110.07
2018-10-07T14:45:05.316Z,102119.51
2018-10-07T14:47:34.198Z,102110.97
2018-10-07T14:50:03.170Z,102112.39
2018-10-07T14:52:32.090Z,102119.92
2018-10-07T14:55:01.212Z,102122.02
2018-10-07T14:57:30.747Z,102125.45
2018-10-07T14:59:59.666Z,102118.33
2018-10-07T15:02:28.826Z,102124.11
2018-10-07T15:04:58.802Z,102128.56
2018-10-07T15:07:28.051Z,102126.50
2018-10-07T15:09:56.951Z,102128.45
2018-10-07T15:12:27.725Z,102122.99
2018-10-07T15:14:56.854Z,102134.28
2018-10-07T15:17:25.876Z,102139.67
2018-10-07T15:19:57.208Z,102133.66
2018-10-07T15:22:26.291Z,102135.26
2018-10-07T15:24:55.290Z,102150.16
2018-10-07T15:27:24.851Z,102141.14
2018-10-07T15:29:54.020Z,102141.63
2018-10-07T15:32:22.982Z,102141.70
2018-10-07T15:34:52.006Z,102148.05
2018-10-07T15:37:21.267Z,102140.53
2018-10-07T15:39:51.293Z,102147.95
2018-10-07T15:42:20.459Z,102154.88
2018-10-07T15:44:50.432Z,102144.44
2018-10-07T15:47:19.409Z,102137.69
2018-10-07T15:49:48.486Z,102132.50
2018-10-07T15:52:17.717Z,102125.09
2018-10-07T15:54:46.860Z,102125.64
2018-10-07T15:57:15.921Z,102119.86
2018-10-07T15:59:46.052Z,102120.80
2018-10-07T16:02:16.104Z,102130.43
2018-10-07T16:04:45.316Z,102129.18
2018-10-07T16:07:14.228Z,102133.84
2018-10-07T16:09:44.353Z,102134.64
2018-10-07T16:12:13.237Z,102132.01
2018-10-07T16:14:42.190Z,102132.73
2018-10-07T16:17:11.054Z,102133.97
2018-10-07T16:19:39.957Z,102131.30
2018-10-07T16:22:09.276Z,102138.17
2018-10-07T16:24:38.284Z,102142.09
2018-10-07T16:27:08.420Z,102146.13
2018-10-07T16:29:37.521Z,102140.64
2018-10-07T16:32:06.589Z,102141.13
2018-10-07T16:34:35.592Z,102145.39
2018-10-07T16:37:05.009Z,102149.44
2018-10-07T16:39:38.419Z,102151.66
2018-10-07T16:42:07.448Z,102150.30
2018-10-07T16:44:36.471Z,102155.86
2018-10-07T16:47:05.516Z,102158.55
2018-10-07T16:49:35.491Z,102165.03
2018-10-07T16:52:04.427Z,102158.07
2018-10-07T16:54:33.571Z,102160.98
2018-10-07T16:57:02.650Z,102164.42
2018-10-07T16:59:32.021Z,102168.52
2018-10-07T17:02:00.966Z,102168.52
2018-10-07T17:04:30.205Z,102170.41
2018-10-07T17:07:00.173Z,102176.08
2018-10-07T17:09:29.134Z,102173.98
2018-10-07T17:11:58.339Z,102175.87
2018-10-07T17:14:27.617Z,102174.98
2018-10-07T17:16:56.566Z,102189.68
2018-10-07T17:19:34.388Z,102185.38
2018-10-07T17:22:03.547Z,102190.06
2018-10-07T17:27:14.638Z,102186.17
2018-10-07T17:29:43.512Z,102199.23
2018-10-07T17:32:12.514Z,102197.49
2018-10-07T17:34:41.640Z,102202.72
2018-10-07T17:37:10.659Z,102204.28
2018-10-07T17:39:39.592Z,102203.09
2018-10-07T17:42:09.896Z,102204.07
2018-10-07T17:44:39.120Z,102211.44
2018-10-07T17:47:08.398Z,102215.72
2018-10-07T17:49:37.769Z,102216.55
2018-10-07T17:52:07.727Z,102205.42
2018-10-07T17:54:38.951Z,102207.42
2018-10-07T17:57:08.975Z,102207.75
2018-10-07T17:59:37.958Z,102214.76
2018-10-07T18:02:07.502Z,102213.66
2018-10-07T18:04:36.725Z,102216.59
2018-10-07T18:07:06.327Z,102217.27
2018-10-07T18:09:35.231Z,102226.58
2018-10-07T18:12:06.279Z,102220.56
2018-10-07T18:14:35.419Z,102219.22
2018-10-07T18:17:05.683Z,102221.10
2018-10-07T18:19:36.787Z,102222.72
2018-10-07T18:22:06.717Z,102215.23
2018-10-07T18:24:36.742Z,102203.39
2018-10-07T18:27:05.826Z,102209.84
2018-10-07T18:29:34.840Z,102206.84
2018-10-07T18:32:03.907Z,102219.50
2018-10-07T18:34:33.956Z,102225.96
2018-10-07T18:37:04.013Z,102222.62
2018-10-07T18:39:33.058Z,102223.60
2018-10-07T18:42:04.145Z,102218.97
2018-10-07T18:44:33.196Z,102215.47
2018-10-07T18:47:02.437Z,102225.55
2018-10-07T18:49:32.819Z,102219.29
2018-10-07T18:52:01.754Z,102224.06
2018-10-07T18:54:30.799Z,102222.84
2018-10-07T18:56:59.844Z,102232.75
2018-10-07T18:59:28.890Z,102225.16
2018-10-07T19:01:58.599Z,102232.26
2018-10-07T19:04:27.754Z,102223.11
2018-10-07T19:06:56.943Z,102227.20
2018-10-07T19:09:26.115Z,102226.76
2018-10-07T19:11:55.542Z,102226.81
2018-10-07T19:14:24.778Z,102237.00
2018-10-07T19:16:53.747Z,102238.03
2018-10-07T19:19:22.693Z,102225.11
2018-10-07T19:21:53.900Z,102232.68
2018-10-07T19:24:22.845Z,102240.33
2018-10-07T19:26:52.056Z,102243.56
2018-10-07T19:32:02.094Z,102234.56
2018-10-07T19:34:31.572Z,102243.34
2018-10-07T19:37:01.754Z,102236.86
2018-10-07T19:39:32.532Z,102232.12
2018-10-07T19:42:03.438Z,102236.20
2018-10-07T19:44:33.183Z,102244.28
2018-10-07T19:47:04.900Z,102246.18
2018-10-07T19:49:36.034Z,102247.54
2018-10-07T19:52:05.118Z,102240.94
2018-10-07T19:54:35.214Z,102231.91
2018-10-07T19:57:06.263Z,102234.27
2018-10-07T19:59:35.605Z,102235.72
2018-10-07T20:02:06.902Z,102231.51
2018-10-07T20:04:35.954Z,102231.27
2018-10-07T20:07:05.169Z,102240.11
2018-10-07T20:09:35.256Z,102239.06
2018-10-07T20:12:06.870Z,102244.25
2018-10-07T20:14:36.542Z,102251.84
2018-10-07T20:17:05.777Z,102243.72
2018-10-07T20:19:34.794Z,102243.14
2018-10-07T20:22:04.190Z,102246.07
2018-10-07T20:24:33.225Z,102251.34
2018-10-07T20:27:02.336Z,102254.19
2018-10-07T20:29:31.697Z,102263.27
2018-10-07T20:32:00.733Z,102257.36
2018-10-07T20:34:29.702Z,102259.89
2018-10-07T20:36:58.652Z,102266.32
2018-10-07T20:39:27.824Z,102270.69
2018-10-07T20:41:56.778Z,102264.34
2018-10-07T20:44:26.942Z,102268.48
2018-10-07T20:46:56.019Z,102258.35
2018-10-07T20:49:24.954Z,102255.51
2018-10-07T20:51:54.005Z,102258.11
2018-10-07T20:54:22.951Z,102254.22
2018-10-07T20:56:51.894Z,102251.34
2018-10-07T20:59:20.958Z,102249.48
2018-10-07T21:01:49.950Z,102246.31
2018-10-07T21:04:18.979Z,102248.72
2018-10-07T21:06:51.503Z,102253.09
2018-10-07T21:09:20.543Z,102255.06
2018-10-07T21:11:49.498Z,102253.33
2018-10-07T21:14:18.715Z,102253.66
2018-10-07T21:16:47.767Z,102255.59
2018-10-07T21:19:16.825Z,102253.91
2018-10-07T21:21:45.996Z,102255.88
2018-10-07T21:24:17.133Z,102251.61
2018-10-07T21:26:49.315Z,102249.81
2018-10-07T21:29:18.317Z,102253.37
2018-10-07T21:31:47.264Z,102248.52
2018-10-07T21:34:16.323Z,102244.25
2018-10-07T21:36:46.291Z,102251.91
2018-10-07T21:39:22.651Z,102247.77
2018-10-07T21:41:54.999Z,102250.89
2018-10-07T21:44:23.849Z,102246.14
2018-10-07T21:46:52.839Z,102246.02
2018-10-07T21:49:21.809Z,102248.41
2018-10-07T21:51:54.716Z,102243.37
2018-10-07T21:54:23.682Z,102243.25
2018-10-07T21:56:52.810Z,102252.32
2018-10-07T21:59:21.891Z,102252.50
2018-10-07T22:01:50.946Z,102247.70
2018-10-07T22:04:20.668Z,102244.33
2018-10-07T22:06:49.585Z,102242.56
2018-10-07T22:09:18.668Z,102236.08
2018-10-07T22:11:47.654Z,102241.22
2018-10-07T22:14:16.556Z,102239.30
2018-10-07T22:16:45.466Z,102227.30
2018-10-07T22:19:14.448Z,102236.29
2018-10-07T22:21:43.453Z,102224.86
2018-10-07T22:24:12.575Z,102220.92
2018-10-07T22:26:41.521Z,102218.52
2018-10-07T22:29:10.651Z,102221.11
2018-10-07T22:31:39.597Z,102224.91
2018-10-07T22:34:08.581Z,102223.17
2018-10-07T22:36:37.607Z,102218.52
2018-10-07T22:39:07.726Z,102221.92
2018-10-07T22:41:36.931Z,102224.09
2018-10-07T22:44:11.771Z,102219.05
2018-10-07T22:46:40.751Z,102216.70
2018-10-07T22:49:09.740Z,102198.17
2018-10-07T22:51:40.720Z,102203.45
2018-10-07T22:54:10.666Z,102198.70
2018-10-07T22:56:39.669Z,102205.61
2018-10-07T22:59:08.571Z,102203.16
2018-10-07T23:01:37.560Z,102203.84
2018-10-07T23:04:08.499Z,102198.70
2018-10-07T23:06:37.449Z,102203.98
2018-10-07T23:09:13.431Z,102199.99
2018-10-07T23:11:42.831Z,102205.20
2018-10-07T23:14:11.882Z,102207.53
2018-10-07T23:16:40.835Z,102199.55
2018-10-07T23:19:09.810Z,102203.27
2018-10-07T23:21:38.864Z,102205.19
2018-10-07T23:24:07.795Z,102207.72
2018-10-07T23:26:36.819Z,102206.24
2018-10-07T23:29:07.743Z,102214.62
2018-10-07T23:31:37.016Z,102218.28
2018-10-07T23:34:05.951Z,102216.70
2018-10-07T23:36:34.899Z,102220.63
2018-10-07T23:39:04.911Z,102221.73
2018-10-07T23:41:34.921Z,102221.74
2018-10-07T23:44:03.859Z,102221.03
2018-10-07T23:46:32.894Z,102227.17
2018-10-07T23:49:01.837Z,102219.97
2018-10-07T23:51:30.972Z,102216.89
2018-10-07T23:53:59.845Z,102215.26
2018-10-07T23:56:28.945Z,102217.63
2018-10-07T23:58:58.177Z,102217.28
